createdAt,value
2022-10-26T00:01:16.367Z,3.60
2022-10-26T00:03:44.376Z,2.90
2022-10-26T00:06:19.530Z,4.00
2022-10-26T00:08:46.761Z,4.70
2022-10-26T00:11:13.973Z,3.60
2022-10-26T00:13:41.144Z,2.87
2022-10-26T00:16:14.406Z,3.17
2022-10-26T00:18:41.318Z,3.27
2022-10-26T00:21:09.786Z,3.57
2022-10-26T00:23:36.806Z,3.23
2022-10-26T00:26:04.425Z,2.70
2022-10-26T00:28:31.867Z,3.60
2022-10-26T00:31:02.955Z,3.03
2022-10-26T00:33:31.039Z,3.87
2022-10-26T00:35:57.935Z,2.90
2022-10-26T00:38:24.750Z,3.60
2022-10-26T00:40:51.651Z,3.50
2022-10-26T00:43:21.601Z,3.23
2022-10-26T00:45:50.273Z,2.90
2022-10-26T00:48:27.906Z,2.70
2022-10-26T00:50:55.381Z,3.10
2022-10-26T00:53:22.338Z,3.00
2022-10-26T00:55:50.691Z,3.17
2022-10-26T00:58:17.588Z,2.77
2022-10-26T01:00:44.447Z,2.87
2022-10-26T01:03:11.680Z,3.37
2022-10-26T01:05:41.250Z,3.40
2022-10-26T01:08:08.938Z,2.60
2022-10-26T01:10:36.665Z,2.67
2022-10-26T01:13:03.471Z,2.80
2022-10-26T01:15:42.240Z,2.90
2022-10-26T01:18:30.820Z,3.57
2022-10-26T01:21:19.401Z,2.90
2022-10-26T01:24:08.301Z,3.10
2022-10-26T01:26:43.327Z,2.97
2022-10-26T01:29:35.328Z,3.97
2022-10-26T01:32:16.038Z,4.10
2022-10-26T01:35:06.846Z,3.27
2022-10-26T01:37:37.960Z,3.30
2022-10-26T01:40:20.064Z,2.97
2022-10-26T01:42:52.389Z,2.90
2022-10-26T01:45:19.203Z,3.40
2022-10-26T01:47:48.136Z,2.87
2022-10-26T01:50:15.664Z,3.17
2022-10-26T01:52:42.501Z,3.23
2022-10-26T01:55:41.911Z,5.23
2022-10-26T01:58:24.082Z,3.43
2022-10-26T02:01:01.753Z,4.23
2022-10-26T02:03:38.147Z,3.77
2022-10-26T02:06:18.596Z,3.20
2022-10-26T02:09:08.937Z,3.03
2022-10-26T02:11:44.394Z,3.03
2022-10-26T02:14:40.351Z,4.27
2022-10-26T02:17:43.962Z,3.03
2022-10-26T02:20:18.503Z,3.63
2022-10-26T02:22:50.235Z,4.07
2022-10-26T02:25:39.773Z,4.50
2022-10-26T02:28:09.013Z,2.90
2022-10-26T02:30:36.306Z,4.07
2022-10-26T02:33:03.708Z,3.37
2022-10-26T02:35:32.360Z,3.47
2022-10-26T02:38:02.370Z,3.50
2022-10-26T02:40:29.474Z,2.67
2022-10-26T02:42:59.934Z,3.77
2022-10-26T02:45:34.436Z,3.50
2022-10-26T02:48:01.253Z,3.17
2022-10-26T02:50:35.068Z,2.90
2022-10-26T02:53:14.702Z,2.63
2022-10-26T02:55:46.884Z,4.17
2022-10-26T02:58:19.852Z,3.30
2022-10-26T03:00:46.726Z,3.00
2022-10-26T03:03:13.935Z,2.70
2022-10-26T03:05:42.578Z,3.30
2022-10-26T03:08:09.404Z,4.00
2022-10-26T03:10:43.412Z,3.00
2022-10-26T03:13:11.904Z,3.10
2022-10-26T03:15:38.844Z,3.53
2022-10-26T03:18:06.175Z,3.13
2022-10-26T03:20:32.968Z,2.73
2022-10-26T03:23:00.774Z,2.60
2022-10-26T03:25:27.790Z,2.90
2022-10-26T03:28:02.231Z,2.80
2022-10-26T03:30:29.758Z,2.53
2022-10-26T03:32:56.641Z,2.80
2022-10-26T03:35:23.635Z,2.53
2022-10-26T03:37:50.734Z,3.10
2022-10-26T03:40:17.676Z,2.57
2022-10-26T03:42:44.435Z,3.27
2022-10-26T03:45:11.481Z,2.83
2022-10-26T03:47:46.070Z,2.73
2022-10-26T03:50:13.908Z,3.57
2022-10-26T03:52:40.855Z,3.07
2022-10-26T03:55:08.103Z,2.93
2022-10-26T03:57:34.781Z,3.40
2022-10-26T04:00:01.530Z,2.60
2022-10-26T04:02:28.192Z,2.80
2022-10-26T04:04:54.886Z,4.97
2022-10-26T04:07:21.579Z,2.80
2022-10-26T04:09:48.294Z,3.87
2022-10-26T04:12:15.037Z,2.60
2022-10-26T04:14:41.733Z,2.77
2022-10-26T04:17:08.469Z,2.77
2022-10-26T04:19:35.200Z,4.30
2022-10-26T04:22:01.930Z,3.43
2022-10-26T04:24:28.594Z,2.40
2022-10-26T04:26:55.278Z,3.73
2022-10-26T04:29:21.953Z,2.57
2022-10-26T04:31:48.759Z,3.27
2022-10-26T04:34:15.746Z,2.60
2022-10-26T04:36:42.449Z,3.30
2022-10-26T04:39:09.117Z,2.50
2022-10-26T04:41:35.801Z,3.07
2022-10-26T04:44:02.493Z,2.73
2022-10-26T04:46:29.529Z,2.77
2022-10-26T04:48:56.244Z,2.83
2022-10-26T04:51:23.006Z,3.57
2022-10-26T04:53:49.686Z,2.60
2022-10-26T04:56:16.402Z,3.27
2022-10-26T04:58:43.059Z,2.83
2022-10-26T05:01:09.836Z,3.07
2022-10-26T05:03:36.577Z,3.00
2022-10-26T05:06:03.531Z,2.70
2022-10-26T05:08:30.373Z,2.60
2022-10-26T05:10:57.127Z,2.73
2022-10-26T05:13:23.996Z,3.30
2022-10-26T05:15:54.266Z,2.90
2022-10-26T05:18:20.952Z,2.70
2022-10-26T05:20:50.049Z,3.60
2022-10-26T05:23:18.697Z,2.87
2022-10-26T05:25:46.210Z,4.73
2022-10-26T05:28:13.713Z,3.10
2022-10-26T05:30:42.606Z,3.77
2022-10-26T05:33:10.637Z,4.17
2022-10-26T05:35:37.958Z,2.93
2022-10-26T05:38:09.138Z,3.10
2022-10-26T05:40:36.017Z,3.00
2022-10-26T05:43:03.248Z,3.07
2022-10-26T05:45:30.371Z,3.30
2022-10-26T05:48:00.013Z,3.03
2022-10-26T05:50:29.375Z,3.07
2022-10-26T05:52:56.079Z,2.97
2022-10-26T05:55:23.257Z,2.90
2022-10-26T05:57:50.576Z,3.20
2022-10-26T06:00:23.547Z,3.40
2022-10-26T06:03:08.312Z,3.23
2022-10-26T06:06:04.012Z,2.93
2022-10-26T06:08:33.581Z,2.90
2022-10-26T06:11:01.327Z,3.10
2022-10-26T06:13:28.227Z,4.10
2022-10-26T06:16:00.799Z,2.57
2022-10-26T06:18:59.646Z,3.00
2022-10-26T06:21:40.660Z,2.80
2022-10-26T06:24:12.867Z,2.60
2022-10-26T06:26:54.736Z,2.50
2022-10-26T06:29:39.397Z,2.73
2022-10-26T06:32:08.351Z,4.47
2022-10-26T06:34:36.579Z,3.30
2022-10-26T06:37:04.199Z,2.57
2022-10-26T06:39:35.339Z,3.27
2022-10-26T06:42:02.362Z,2.63
2022-10-26T06:44:29.391Z,2.90
2022-10-26T06:47:14.072Z,3.53
2022-10-26T06:49:55.834Z,2.90
2022-10-26T06:52:55.776Z,2.57
2022-10-26T06:55:23.434Z,2.77
2022-10-26T06:57:50.589Z,2.80
2022-10-26T07:00:22.179Z,2.90
2022-10-26T07:02:50.095Z,2.60
2022-10-26T07:05:17.609Z,3.50
2022-10-26T07:07:46.028Z,5.40
2022-10-26T07:10:13.750Z,3.70
2022-10-26T07:12:40.487Z,2.53
2022-10-26T07:15:10.776Z,3.47
2022-10-26T07:17:48.664Z,2.20
2022-10-26T07:20:17.543Z,2.83
2022-10-26T07:22:44.314Z,3.73
2022-10-26T07:25:12.273Z,2.57
2022-10-26T07:27:39.142Z,3.23
2022-10-26T07:30:06.551Z,3.60
2022-10-26T07:32:33.333Z,2.90
2022-10-26T07:35:00.073Z,2.40
2022-10-26T07:37:26.920Z,3.30
2022-10-26T07:39:53.611Z,2.70
2022-10-26T07:42:20.430Z,2.60
2022-10-26T07:44:47.228Z,4.40
2022-10-26T07:47:14.391Z,2.37
2022-10-26T07:49:41.439Z,2.63
2022-10-26T07:52:09.571Z,2.90
2022-10-26T07:54:36.350Z,2.20
2022-10-26T07:57:03.136Z,2.00
2022-10-26T07:59:29.940Z,2.70
2022-10-26T08:01:56.645Z,4.63
2022-10-26T08:04:23.369Z,2.70
2022-10-26T08:06:50.121Z,3.20
2022-10-26T08:09:16.848Z,1.83
2022-10-26T08:11:43.546Z,2.47
2022-10-26T08:14:11.078Z,1.97
2022-10-26T08:16:40.231Z,3.23
2022-10-26T08:19:07.842Z,1.83
2022-10-26T08:21:39.508Z,5.47
2022-10-26T08:24:07.386Z,2.90
2022-10-26T08:26:34.234Z,2.00
2022-10-26T08:29:00.951Z,3.27
2022-10-26T08:31:28.145Z,1.70
2022-10-26T08:33:54.808Z,2.07
2022-10-26T08:36:24.357Z,2.30
2022-10-26T08:38:52.416Z,2.63
2022-10-26T08:41:42.621Z,2.07
2022-10-26T08:44:25.497Z,4.03
2022-10-26T08:46:56.009Z,4.10
2022-10-26T08:49:24.470Z,2.80
2022-10-26T08:51:53.548Z,2.67
2022-10-26T08:54:25.487Z,3.37
2022-10-26T08:56:58.636Z,3.00
2022-10-26T08:59:46.988Z,2.10
2022-10-26T09:02:15.190Z,3.50
2022-10-26T09:04:42.448Z,2.37
2022-10-26T09:07:40.364Z,2.30
2022-10-26T09:10:50.660Z,3.73
2022-10-26T09:13:54.154Z,2.30
2022-10-26T09:16:47.671Z,3.40
2022-10-26T09:19:51.892Z,2.73
2022-10-26T09:22:39.534Z,2.80
2022-10-26T09:25:27.693Z,2.10
2022-10-26T09:28:00.737Z,2.50
2022-10-26T09:30:28.370Z,2.97
2022-10-26T09:33:18.457Z,2.43
2022-10-26T09:36:11.985Z,4.43
2022-10-26T09:39:03.738Z,2.50
2022-10-26T09:41:38.830Z,4.80
2022-10-26T09:44:28.789Z,3.30
2022-10-26T09:47:11.782Z,4.00
2022-10-26T09:49:48.696Z,2.63
2022-10-26T09:52:16.392Z,2.47
2022-10-26T09:54:43.725Z,3.93
2022-10-26T09:57:14.905Z,3.23
2022-10-26T09:59:41.944Z,4.23
2022-10-26T10:02:34.532Z,3.37
2022-10-26T10:05:01.388Z,3.73
2022-10-26T10:07:28.339Z,2.20
2022-10-26T10:10:16.423Z,2.63
2022-10-26T10:12:43.358Z,2.87
2022-10-26T10:15:24.255Z,4.67
2022-10-26T10:17:53.276Z,2.93
2022-10-26T10:20:28.683Z,2.23
2022-10-26T10:22:59.996Z,3.93
2022-10-26T10:25:34.664Z,3.33
2022-10-26T10:28:02.121Z,4.37
2022-10-26T10:30:31.558Z,3.93
2022-10-26T10:33:13.979Z,3.67
2022-10-26T10:35:49.001Z,2.43
2022-10-26T10:38:21.988Z,2.50
2022-10-26T10:40:59.558Z,4.23
2022-10-26T10:43:26.869Z,3.47
2022-10-26T10:45:58.646Z,4.77
2022-10-26T10:48:28.621Z,4.00
2022-10-26T10:51:04.990Z,3.33
2022-10-26T10:53:45.790Z,3.80
2022-10-26T10:56:26.358Z,3.60
2022-10-26T10:59:06.842Z,4.10
2022-10-26T11:01:40.784Z,3.43
2022-10-26T11:04:27.933Z,3.30
2022-10-26T11:06:57.544Z,3.77
2022-10-26T11:09:28.443Z,3.67
2022-10-26T11:11:58.609Z,4.73
2022-10-26T11:14:35.279Z,4.17
2022-10-26T11:17:06.751Z,4.00
2022-10-26T11:19:54.333Z,2.13
2022-10-26T11:22:28.095Z,3.70
2022-10-26T11:25:17.881Z,4.03
2022-10-26T11:27:51.147Z,3.23
2022-10-26T11:30:21.764Z,2.13
2022-10-26T11:32:54.419Z,4.13
2022-10-26T11:35:35.863Z,4.27
2022-10-26T11:38:11.865Z,4.07
2022-10-26T11:40:58.480Z,2.63
2022-10-26T11:43:55.122Z,4.10
2022-10-26T11:46:26.883Z,3.67
2022-10-26T11:49:01.267Z,2.90
2022-10-26T11:51:36.368Z,2.70
2022-10-26T11:54:22.545Z,2.07
2022-10-26T11:56:52.532Z,6.60
2022-10-26T11:59:32.238Z,2.77
2022-10-26T12:02:10.291Z,3.47
2022-10-26T12:04:37.915Z,3.07
2022-10-26T12:07:11.044Z,4.30
2022-10-26T12:09:40.042Z,2.83
2022-10-26T12:12:18.472Z,3.17
2022-10-26T12:14:56.086Z,3.57
2022-10-26T12:17:55.084Z,4.33
2022-10-26T12:20:46.262Z,1.67
2022-10-26T12:23:19.121Z,1.87
2022-10-26T12:26:23.962Z,3.13
2022-10-26T12:29:03.077Z,1.67
2022-10-26T12:31:33.711Z,3.47
2022-10-26T12:34:01.077Z,3.50
2022-10-26T12:36:50.820Z,3.07
2022-10-26T12:39:40.354Z,1.60
2022-10-26T12:42:28.943Z,3.47
2022-10-26T12:45:01.882Z,4.87
2022-10-26T12:47:28.593Z,3.03
2022-10-26T12:50:07.549Z,2.53
2022-10-26T12:52:40.619Z,1.43
2022-10-26T12:55:13.418Z,1.80
2022-10-26T12:58:10.287Z,2.13
2022-10-26T13:00:41.756Z,3.40
2022-10-26T13:03:27.272Z,2.90
2022-10-26T13:06:30.522Z,3.53
2022-10-26T13:09:00.149Z,2.60
2022-10-26T13:11:36.021Z,2.53
2022-10-26T13:14:05.514Z,2.43
2022-10-26T13:16:32.673Z,2.07
2022-10-26T13:18:59.981Z,2.33
2022-10-26T13:21:27.064Z,3.30
2022-10-26T13:23:53.809Z,2.00
2022-10-26T13:26:26.451Z,2.70
2022-10-26T13:29:00.083Z,2.70
2022-10-26T13:31:32.292Z,3.50
2022-10-26T13:34:05.894Z,1.80
2022-10-26T13:36:54.806Z,2.17
2022-10-26T13:39:27.637Z,2.67
2022-10-26T13:41:55.121Z,2.57
2022-10-26T13:44:48.493Z,3.33
2022-10-26T13:47:42.552Z,1.53
2022-10-26T13:50:18.535Z,2.13
2022-10-26T13:52:51.296Z,2.30
2022-10-26T13:55:25.285Z,3.17
2022-10-26T13:58:20.862Z,5.00
2022-10-26T14:01:08.985Z,2.87
2022-10-26T14:03:36.247Z,2.63
2022-10-26T14:06:27.340Z,2.53
2022-10-26T14:08:59.762Z,4.33
2022-10-26T14:11:43.081Z,2.40
2022-10-26T14:14:36.508Z,3.77
2022-10-26T14:17:03.800Z,1.87
2022-10-26T14:19:36.966Z,3.20
2022-10-26T14:22:04.155Z,4.60
2022-10-26T14:24:46.851Z,1.77
2022-10-26T14:27:19.249Z,2.00
2022-10-26T14:30:03.616Z,4.43
2022-10-26T14:32:33.886Z,3.20
2022-10-26T14:35:00.682Z,3.57
2022-10-26T14:37:54.708Z,2.73
2022-10-26T14:40:27.151Z,2.87
2022-10-26T14:43:04.920Z,2.37
2022-10-26T14:45:47.958Z,3.13
2022-10-26T14:48:30.580Z,2.17
2022-10-26T14:51:02.474Z,2.90
2022-10-26T14:53:36.330Z,1.93
2022-10-26T14:56:05.000Z,2.83
2022-10-26T14:58:33.810Z,3.60
2022-10-26T15:01:22.630Z,1.83
2022-10-26T15:03:58.671Z,3.00
2022-10-26T15:06:28.485Z,2.10
2022-10-26T15:09:00.207Z,1.60
2022-10-26T15:11:28.332Z,2.27
2022-10-26T15:13:55.701Z,1.60
2022-10-26T15:16:27.884Z,2.10
2022-10-26T15:19:00.232Z,2.40
2022-10-26T15:21:42.648Z,2.43
2022-10-26T15:24:28.020Z,2.50
2022-10-26T15:26:54.980Z,1.83
2022-10-26T15:29:41.172Z,2.33
2022-10-26T15:32:28.269Z,2.30
2022-10-26T15:35:15.508Z,1.53
2022-10-26T15:37:42.476Z,1.87
2022-10-26T15:40:09.568Z,2.83
2022-10-26T15:42:40.478Z,1.80
2022-10-26T15:45:16.276Z,2.00
2022-10-26T15:47:43.234Z,2.33
2022-10-26T15:50:21.922Z,2.80
2022-10-26T15:52:49.537Z,1.73
2022-10-26T15:55:17.628Z,2.07
2022-10-26T15:57:44.740Z,2.57
2022-10-26T16:00:15.910Z,2.60
2022-10-26T16:02:45.048Z,2.10
2022-10-26T16:05:13.543Z,2.03
2022-10-26T16:07:41.120Z,3.23
2022-10-26T16:10:13.015Z,2.67
2022-10-26T16:12:39.921Z,2.70
2022-10-26T16:15:07.531Z,2.60
2022-10-26T16:17:34.362Z,3.13
2022-10-26T16:20:05.377Z,2.43
2022-10-26T16:22:37.630Z,3.27
2022-10-26T16:25:05.868Z,3.20
2022-10-26T16:27:32.704Z,2.37
2022-10-26T16:29:59.556Z,2.70
2022-10-26T16:32:26.322Z,3.63
2022-10-26T16:34:52.984Z,3.60
2022-10-26T16:37:19.791Z,3.13
2022-10-26T16:39:46.609Z,2.53
2022-10-26T16:42:13.374Z,3.03
2022-10-26T16:44:40.249Z,3.73
2022-10-26T16:47:07.197Z,3.07
2022-10-26T16:49:34.200Z,4.37
2022-10-26T16:52:00.990Z,3.50
2022-10-26T16:54:30.982Z,4.37
2022-10-26T16:56:57.713Z,3.10
2022-10-26T16:59:24.936Z,4.23
2022-10-26T17:01:51.778Z,5.60
2022-10-26T17:04:18.721Z,3.40
2022-10-26T17:06:45.418Z,3.80
2022-10-26T17:09:12.179Z,3.80
2022-10-26T17:11:38.929Z,4.57
2022-10-26T17:14:05.730Z,6.23
2022-10-26T17:16:32.640Z,4.07
2022-10-26T17:18:59.400Z,4.73
2022-10-26T17:21:32.242Z,6.10
2022-10-26T17:23:59.154Z,5.87
2022-10-26T17:26:26.026Z,6.13
2022-10-26T17:28:54.044Z,5.57
2022-10-26T17:31:21.270Z,5.63
2022-10-26T17:33:50.995Z,6.80
2022-10-26T17:36:22.321Z,7.40
2022-10-26T17:38:50.436Z,6.60
2022-10-26T17:41:18.779Z,7.50
2022-10-26T17:43:46.473Z,5.47
2022-10-26T17:46:18.235Z,6.53
2022-10-26T17:48:45.750Z,6.37
2022-10-26T17:51:14.832Z,5.40
2022-10-26T17:53:41.526Z,7.40
2022-10-26T17:56:10.897Z,4.47
2022-10-26T17:58:38.118Z,5.33
2022-10-26T18:01:07.789Z,5.90
2022-10-26T18:03:35.220Z,5.73
2022-10-26T18:06:02.195Z,5.27
2022-10-26T18:08:32.577Z,5.27
2022-10-26T18:10:59.350Z,5.27
2022-10-26T18:13:31.537Z,6.20
2022-10-26T18:16:16.385Z,5.80
2022-10-26T18:18:50.127Z,4.50
2022-10-26T18:21:19.477Z,5.63
2022-10-26T18:23:46.837Z,5.07
2022-10-26T18:26:15.774Z,5.83
2022-10-26T18:28:42.631Z,5.33
2022-10-26T18:31:14.390Z,4.47
2022-10-26T18:33:41.487Z,4.63
2022-10-26T18:36:10.435Z,5.10
2022-10-26T18:38:37.800Z,5.73
2022-10-26T18:41:04.888Z,5.10
2022-10-26T18:43:31.749Z,4.50
2022-10-26T18:46:18.984Z,5.80
2022-10-26T18:48:48.317Z,5.30
2022-10-26T18:51:17.699Z,4.13
2022-10-26T18:53:45.513Z,6.33
2022-10-26T18:56:15.588Z,5.27
2022-10-26T18:58:45.080Z,4.97
2022-10-26T19:01:23.302Z,4.80
2022-10-26T19:03:54.566Z,5.20
2022-10-26T19:06:27.044Z,6.53
2022-10-26T19:08:54.472Z,5.90
2022-10-26T19:11:23.317Z,5.83
2022-10-26T19:13:52.752Z,5.70
2022-10-26T19:16:40.611Z,4.83
2022-10-26T19:19:11.724Z,4.97
2022-10-26T19:21:38.718Z,5.03
2022-10-26T19:24:05.687Z,5.67
2022-10-26T19:26:36.780Z,6.30
2022-10-26T19:29:06.419Z,4.83
2022-10-26T19:31:34.201Z,5.60
2022-10-26T19:34:01.410Z,7.07
2022-10-26T19:36:29.128Z,6.37
2022-10-26T19:38:56.071Z,5.60
2022-10-26T19:41:23.987Z,5.97
2022-10-26T19:43:50.814Z,6.17
2022-10-26T19:46:21.106Z,5.97
2022-10-26T19:48:58.537Z,5.73
2022-10-26T19:51:26.416Z,5.43
2022-10-26T19:53:53.220Z,5.80
2022-10-26T19:56:20.770Z,6.93
2022-10-26T19:58:48.714Z,5.60
2022-10-26T20:01:19.896Z,6.40
2022-10-26T20:03:46.624Z,7.70
2022-10-26T20:06:13.401Z,6.87
2022-10-26T20:08:41.882Z,8.77
2022-10-26T20:11:13.113Z,6.47
2022-10-26T20:13:43.081Z,5.60
2022-10-26T20:16:10.623Z,7.20
2022-10-26T20:18:37.497Z,5.17
2022-10-26T20:21:11.368Z,7.30
2022-10-26T20:23:38.260Z,7.47
2022-10-26T20:28:33.046Z,7.13
2022-10-26T20:30:59.742Z,7.80
2022-10-26T20:33:27.271Z,8.90
2022-10-26T20:35:58.691Z,8.77
2022-10-26T20:38:26.191Z,8.27
2022-10-26T20:40:58.033Z,8.63
2022-10-26T20:43:25.967Z,10.43
2022-10-26T20:45:53.272Z,9.47
2022-10-26T20:48:21.120Z,9.87
2022-10-26T20:50:57.167Z,10.17
2022-10-26T20:53:28.717Z,10.03
2022-10-26T20:56:03.889Z,9.47
2022-10-26T20:58:39.530Z,10.60
2022-10-26T21:01:38.595Z,9.43
2022-10-26T21:04:05.417Z,8.07
2022-10-26T21:06:40.100Z,9.20
2022-10-26T21:09:07.732Z,9.00
2022-10-26T21:11:35.954Z,9.33
2022-10-26T21:14:05.038Z,8.23
2022-10-26T21:16:32.049Z,7.90
2022-10-26T21:19:00.283Z,8.40
2022-10-26T21:21:27.071Z,9.40
2022-10-26T21:23:53.985Z,8.10
2022-10-26T21:26:20.662Z,8.37
2022-10-26T21:28:47.420Z,7.67
2022-10-26T21:31:16.520Z,8.50
2022-10-26T21:33:44.340Z,7.43
2022-10-26T21:36:12.500Z,8.17
2022-10-26T21:38:41.105Z,7.50
2022-10-26T21:41:18.795Z,7.40
2022-10-26T21:43:48.618Z,7.03
2022-10-26T21:46:16.791Z,7.83
2022-10-26T21:48:44.000Z,6.53
2022-10-26T21:51:13.941Z,7.40
2022-10-26T21:53:41.413Z,7.27
2022-10-26T21:56:15.448Z,6.50
2022-10-26T21:58:42.328Z,6.93
2022-10-26T22:01:11.431Z,6.87
2022-10-26T22:03:39.091Z,6.93
2022-10-26T22:06:07.221Z,6.00
2022-10-26T22:08:34.807Z,6.90
2022-10-26T22:11:15.854Z,6.53
2022-10-26T22:13:43.967Z,5.73
2022-10-26T22:16:21.539Z,6.00
2022-10-26T22:18:49.516Z,6.67
2022-10-26T22:21:17.678Z,6.63
2022-10-26T22:23:45.024Z,7.53
2022-10-26T22:26:17.622Z,7.27
2022-10-26T22:28:45.841Z,5.73
2022-10-26T22:31:16.606Z,5.83
2022-10-26T22:33:43.966Z,6.23
2022-10-26T22:36:13.185Z,6.67
2022-10-26T22:38:40.605Z,5.37
2022-10-26T22:41:07.964Z,6.67
2022-10-26T22:43:34.822Z,5.60
2022-10-26T22:46:05.654Z,6.40
2022-10-26T22:48:33.778Z,6.57
2022-10-26T22:51:06.411Z,5.83
2022-10-26T22:53:33.373Z,6.53
2022-10-26T22:56:01.054Z,6.73
2022-10-26T22:58:28.100Z,6.40
2022-10-26T23:01:06.304Z,6.40
2022-10-26T23:03:33.606Z,6.43
2022-10-26T23:06:01.099Z,5.83
2022-10-26T23:08:28.410Z,5.73
2022-10-26T23:11:00.185Z,6.10
2022-10-26T23:13:27.533Z,6.03
2022-10-26T23:15:54.569Z,5.03
2022-10-26T23:18:21.546Z,7.73
2022-10-26T23:20:49.899Z,6.30
2022-10-26T23:23:17.397Z,6.37
2022-10-26T23:25:44.625Z,5.73
2022-10-26T23:28:11.386Z,5.97
2022-10-26T23:30:38.280Z,7.10
2022-10-26T23:33:05.210Z,5.80
2022-10-26T23:35:32.129Z,5.60
2022-10-26T23:37:59.745Z,7.87
2022-10-26T23:40:27.586Z,5.70
2022-10-26T23:42:54.626Z,5.07
2022-10-26T23:45:22.014Z,5.70
2022-10-26T23:47:49.392Z,5.50
2022-10-26T23:50:16.820Z,5.83
2022-10-26T23:52:49.700Z,6.07
2022-10-26T23:55:17.670Z,5.83
2022-10-26T23:57:44.448Z,4.97
